createdAt,value
2018-04-17T00:00:38.187Z,9.30
2018-04-17T00:03:04.866Z,8.27
2018-04-17T00:05:31.552Z,7.20
2018-04-17T00:07:58.259Z,7.87
2018-04-17T00:10:24.938Z,7.40
2018-04-17T00:12:51.635Z,12.67
2018-04-17T00:15:18.307Z,5.27
2018-04-17T00:17:45.004Z,4.50
2018-04-17T00:20:11.749Z,5.67
2018-04-17T00:22:38.444Z,4.13
2018-04-17T00:25:05.176Z,9.90
2018-04-17T00:27:31.879Z,10.13
2018-04-17T00:29:58.552Z,8.93
2018-04-17T00:32:25.380Z,4.23
2018-04-17T00:34:52.094Z,3.50
2018-04-17T00:37:18.788Z,6.53
2018-04-17T00:39:45.504Z,3.80
2018-04-17T00:42:12.206Z,4.23
2018-04-17T00:44:38.884Z,8.00
2018-04-17T00:47:05.636Z,7.60
2018-04-17T00:49:32.325Z,7.67
2018-04-17T00:51:59.052Z,8.77
2018-04-17T00:54:25.721Z,7.53
2018-04-17T00:56:52.475Z,9.13
2018-04-17T00:59:19.145Z,7.53
2018-04-17T01:01:45.923Z,11.77
2018-04-17T01:04:12.648Z,8.40
2018-04-17T01:06:39.338Z,11.33
2018-04-17T01:09:06.023Z,7.73
2018-04-17T01:11:32.727Z,5.20
2018-04-17T01:13:59.430Z,3.93
2018-04-17T01:16:26.109Z,3.80
2018-04-17T01:18:52.803Z,3.97
2018-04-17T01:21:19.470Z,3.93
2018-04-17T01:23:46.148Z,8.67
2018-04-17T01:26:12.989Z,7.73
2018-04-17T01:28:39.667Z,4.63
2018-04-17T01:31:06.364Z,5.23
2018-04-17T01:33:33.036Z,4.33
2018-04-17T01:35:59.731Z,3.30
2018-04-17T01:38:26.450Z,3.97
2018-04-17T01:40:53.140Z,3.97
2018-04-17T01:43:19.855Z,5.43
2018-04-17T01:45:46.536Z,6.10
2018-04-17T01:48:13.228Z,4.97
2018-04-17T01:50:39.933Z,5.10
2018-04-17T01:53:06.866Z,5.87
2018-04-17T01:55:33.540Z,6.50
2018-04-17T01:58:00.242Z,4.30
2018-04-17T02:00:26.915Z,4.30
2018-04-17T02:02:53.612Z,5.60
2018-04-17T02:05:20.291Z,4.33
2018-04-17T02:07:47.091Z,4.73
2018-04-17T02:10:13.764Z,4.10
2018-04-17T02:12:40.591Z,9.47
2018-04-17T02:15:07.281Z,5.83
2018-04-17T02:17:33.956Z,7.20
2018-04-17T02:20:00.647Z,9.87
2018-04-17T02:22:27.325Z,9.30
2018-04-17T02:24:54.260Z,3.67
2018-04-17T02:27:20.996Z,6.70
2018-04-17T02:29:47.697Z,4.53
2018-04-17T02:32:14.391Z,12.43
2018-04-17T02:34:41.058Z,6.47
2018-04-17T02:37:07.763Z,6.50
2018-04-17T02:39:34.451Z,7.73
2018-04-17T02:42:01.115Z,5.23
2018-04-17T02:44:27.884Z,3.73
2018-04-17T02:46:54.571Z,3.60
2018-04-17T02:49:21.249Z,3.47
2018-04-17T02:51:47.935Z,4.53
2018-04-17T02:54:14.687Z,5.57
2018-04-17T02:56:41.363Z,11.63
2018-04-17T02:59:08.196Z,10.30
2018-04-17T03:01:34.892Z,7.10
2018-04-17T03:04:01.694Z,7.20
2018-04-17T03:06:28.364Z,8.33
2018-04-17T03:08:55.057Z,4.03
2018-04-17T03:11:21.806Z,5.53
2018-04-17T03:13:48.715Z,2.90
2018-04-17T03:16:15.421Z,3.90
2018-04-17T03:18:42.112Z,4.67
2018-04-17T03:21:08.815Z,8.33
2018-04-17T03:23:35.503Z,7.60
2018-04-17T03:26:02.243Z,9.27
2018-04-17T03:28:28.920Z,9.70
2018-04-17T03:30:55.619Z,10.77
2018-04-17T03:33:22.296Z,9.40
2018-04-17T03:35:48.983Z,3.97
2018-04-17T03:38:15.678Z,3.83
2018-04-17T03:40:42.356Z,6.10
2018-04-17T03:43:09.062Z,4.47
2018-04-17T03:45:35.741Z,5.87
2018-04-17T03:48:02.432Z,4.27
2018-04-17T03:50:29.111Z,6.70
2018-04-17T03:52:55.930Z,8.70
2018-04-17T03:55:22.718Z,9.00
2018-04-17T03:57:49.404Z,7.17
2018-04-17T04:00:16.240Z,7.23
2018-04-17T04:02:42.960Z,5.77
2018-04-17T04:05:09.733Z,8.43
2018-04-17T04:07:36.498Z,10.23
2018-04-17T04:10:03.195Z,11.63
2018-04-17T04:12:29.888Z,4.60
2018-04-17T04:14:56.597Z,8.37
2018-04-17T04:17:29.197Z,4.60
2018-04-17T04:20:01.848Z,6.47
2018-04-17T04:22:34.467Z,7.20
2018-04-17T04:25:15.892Z,10.03
2018-04-17T04:27:42.580Z,8.50
2018-04-17T04:30:09.331Z,5.40
2018-04-17T04:32:36.039Z,4.53
2018-04-17T04:35:02.731Z,4.93
2018-04-17T04:37:29.406Z,5.90
2018-04-17T04:39:56.084Z,5.97
2018-04-17T04:42:22.822Z,8.87
2018-04-17T04:44:49.505Z,12.73
2018-04-17T04:47:16.200Z,8.70
2018-04-17T04:49:42.921Z,12.40
2018-04-17T04:52:09.601Z,4.63
2018-04-17T04:54:36.280Z,5.37
2018-04-17T04:57:03.158Z,5.83
2018-04-17T04:59:29.844Z,10.27
2018-04-17T05:01:56.545Z,6.97
2018-04-17T05:04:23.231Z,8.00
2018-04-17T05:06:49.953Z,6.60
2018-04-17T05:09:16.626Z,5.33
2018-04-17T05:11:43.322Z,6.70
2018-04-17T05:14:10.016Z,8.70
2018-04-17T05:16:36.723Z,9.80
2018-04-17T05:19:03.457Z,9.00
2018-04-17T05:21:30.131Z,10.87
2018-04-17T05:23:56.956Z,8.60
2018-04-17T05:26:23.657Z,7.13
2018-04-17T05:28:50.344Z,6.33
2018-04-17T05:31:17.039Z,7.20
2018-04-17T05:33:43.715Z,7.27
2018-04-17T05:36:10.398Z,8.70
2018-04-17T05:38:37.083Z,9.37
2018-04-17T05:41:03.836Z,13.80
2018-04-17T05:43:30.535Z,11.07
2018-04-17T05:45:57.423Z,11.13
2018-04-17T05:48:24.104Z,13.10
2018-04-17T05:50:50.788Z,16.60
2018-04-17T05:53:17.556Z,16.57
2018-04-17T05:55:44.259Z,13.10
2018-04-17T05:58:10.992Z,17.80
2018-04-17T06:00:37.684Z,12.00
2018-04-17T06:03:04.374Z,12.90
2018-04-17T06:05:31.160Z,17.20
2018-04-17T06:07:57.868Z,20.73
2018-04-17T06:10:24.589Z,15.30
2018-04-17T06:12:51.259Z,15.90
2018-04-17T06:15:18.060Z,15.17
2018-04-17T06:17:44.744Z,17.83
2018-04-17T06:20:11.456Z,16.80
2018-04-17T06:22:38.191Z,19.47
2018-04-17T06:25:04.984Z,15.10
2018-04-17T06:27:31.724Z,19.30
2018-04-17T06:29:58.400Z,18.83
2018-04-17T06:32:25.096Z,16.90
2018-04-17T06:34:51.936Z,16.27
2018-04-17T06:37:18.615Z,18.57
2018-04-17T06:39:45.311Z,21.97
2018-04-17T06:42:12.036Z,17.97
2018-04-17T06:44:38.724Z,19.97
2018-04-17T06:47:05.540Z,15.00
2018-04-17T06:49:32.235Z,21.47
2018-04-17T06:51:58.999Z,16.37
2018-04-17T06:54:25.808Z,18.73
2018-04-17T06:56:52.531Z,14.17
2018-04-17T06:59:19.383Z,22.80
2018-04-17T07:01:46.100Z,17.80
2018-04-17T07:04:12.921Z,15.30
2018-04-17T07:06:39.608Z,17.30
2018-04-17T07:09:06.451Z,16.23
2018-04-17T07:11:33.141Z,16.60
2018-04-17T07:13:59.849Z,21.77
2018-04-17T07:16:26.537Z,25.30
2018-04-17T07:18:53.231Z,20.10
2018-04-17T07:21:19.961Z,16.83
2018-04-17T07:23:46.721Z,17.43
2018-04-17T07:26:13.376Z,16.97
2018-04-17T07:28:40.110Z,18.97
2018-04-17T07:31:07.001Z,23.20
2018-04-17T07:33:33.682Z,17.37
2018-04-17T07:36:00.411Z,20.70
2018-04-17T07:38:27.099Z,17.27
2018-04-17T07:40:53.800Z,18.17
2018-04-17T07:43:20.480Z,17.80
2018-04-17T07:45:47.185Z,18.50
2018-04-17T07:48:19.615Z,26.30
2018-04-17T07:50:46.312Z,16.23
2018-04-17T07:53:12.997Z,16.93
2018-04-17T07:55:39.727Z,16.57
2018-04-17T07:58:06.407Z,15.33
2018-04-17T08:00:33.092Z,15.40
2018-04-17T08:02:59.824Z,18.83
2018-04-17T08:05:26.515Z,19.00
2018-04-17T08:07:53.243Z,16.43
2018-04-17T08:10:19.932Z,16.23
2018-04-17T08:12:46.647Z,15.97
2018-04-17T08:15:13.338Z,19.13
2018-04-17T08:17:40.115Z,37.13
2018-04-17T08:20:06.756Z,16.00
2018-04-17T08:22:33.495Z,18.80
2018-04-17T08:25:00.210Z,17.27
2018-04-17T08:27:26.915Z,14.90
2018-04-17T08:29:53.588Z,15.40
2018-04-17T08:32:20.328Z,14.67
2018-04-17T08:34:47.007Z,18.70
2018-04-17T08:37:13.706Z,14.63
2018-04-17T08:39:40.400Z,16.03
2018-04-17T08:42:07.114Z,15.80
2018-04-17T08:44:33.796Z,17.60
2018-04-17T08:47:00.528Z,15.80
2018-04-17T08:49:27.218Z,20.43
2018-04-17T08:51:53.920Z,18.57
2018-04-17T08:54:20.661Z,19.10
2018-04-17T08:56:47.355Z,15.07
2018-04-17T08:59:14.067Z,20.03
2018-04-17T09:01:40.771Z,16.00
2018-04-17T09:06:40.709Z,14.87
2018-04-17T09:09:07.398Z,20.73
2018-04-17T09:11:34.118Z,21.53
2018-04-17T09:14:00.812Z,15.90
2018-04-17T09:16:27.635Z,16.17
2018-04-17T09:18:54.347Z,16.90
2018-04-17T09:21:21.169Z,16.23
2018-04-17T09:23:47.855Z,16.77
2018-04-17T09:26:14.569Z,16.27
2018-04-17T09:28:41.262Z,18.57
2018-04-17T09:31:07.968Z,18.23
2018-04-17T09:33:34.661Z,17.60
2018-04-17T09:36:01.358Z,16.30
2018-04-17T09:38:28.121Z,19.73
2018-04-17T09:40:54.857Z,17.20
2018-04-17T09:43:21.576Z,17.53
2018-04-17T09:45:48.298Z,20.83
2018-04-17T09:48:14.991Z,14.83
2018-04-17T09:50:41.700Z,15.40
2018-04-17T09:53:08.431Z,14.23
2018-04-17T09:55:35.102Z,14.37
2018-04-17T09:58:01.900Z,17.67
2018-04-17T10:00:28.596Z,15.10
2018-04-17T10:02:55.293Z,15.80
2018-04-17T10:05:21.988Z,14.63
2018-04-17T10:07:48.687Z,14.23
2018-04-17T10:10:15.379Z,16.00
2018-04-17T10:12:42.085Z,16.13
2018-04-17T10:15:08.803Z,15.90
2018-04-17T10:17:35.603Z,16.00
2018-04-17T10:20:02.283Z,16.13
2018-04-17T10:22:29.107Z,18.43
2018-04-17T10:24:55.795Z,17.80
2018-04-17T10:27:22.563Z,18.37
2018-04-17T10:29:49.325Z,18.60
2018-04-17T10:32:15.995Z,20.27
2018-04-17T10:34:42.700Z,19.13
2018-04-17T10:37:09.393Z,17.33
2018-04-17T10:39:36.112Z,17.60
2018-04-17T10:42:02.804Z,17.97
2018-04-17T10:44:29.519Z,18.37
2018-04-17T10:46:56.224Z,16.60
2018-04-17T10:49:22.936Z,18.27
2018-04-17T10:51:49.611Z,21.40
2018-04-17T10:54:16.299Z,18.60
2018-04-17T10:56:43.031Z,13.33
2018-04-17T10:59:09.720Z,11.17
2018-04-17T11:01:36.423Z,12.80
2018-04-17T11:04:03.123Z,12.57
2018-04-17T11:06:29.827Z,15.20
2018-04-17T11:08:56.521Z,13.13
2018-04-17T11:11:23.196Z,14.20
2018-04-17T11:13:49.972Z,15.40
2018-04-17T11:16:16.695Z,14.33
2018-04-17T11:18:43.387Z,13.13
2018-04-17T11:21:10.075Z,14.77
2018-04-17T11:23:36.800Z,16.30
2018-04-17T11:26:03.484Z,18.90
2018-04-17T11:28:30.248Z,16.73
2018-04-17T11:30:56.935Z,15.27
2018-04-17T11:33:23.645Z,18.47
2018-04-17T11:35:50.346Z,18.80
2018-04-17T11:38:17.068Z,18.17
2018-04-17T11:40:43.768Z,18.93
2018-04-17T11:43:10.464Z,17.87
2018-04-17T11:45:37.263Z,18.30
2018-04-17T11:48:03.966Z,15.40
2018-04-17T11:50:30.816Z,16.10
2018-04-17T11:52:57.533Z,14.33
2018-04-17T11:55:24.268Z,14.33
2018-04-17T11:57:50.994Z,15.63
2018-04-17T12:00:17.690Z,14.77
2018-04-17T12:02:44.419Z,14.87
2018-04-17T12:05:11.096Z,19.37
2018-04-17T12:07:37.818Z,13.77
2018-04-17T12:10:04.716Z,15.33
2018-04-17T12:12:31.439Z,14.00
2018-04-17T12:14:58.125Z,13.87
2018-04-17T12:17:24.840Z,14.43
2018-04-17T12:19:51.529Z,13.50
2018-04-17T12:22:18.233Z,13.30
2018-04-17T12:24:44.925Z,12.67
2018-04-17T12:27:11.617Z,15.97
2018-04-17T12:29:38.338Z,16.77
2018-04-17T12:32:05.040Z,15.33
2018-04-17T12:34:31.783Z,14.90
2018-04-17T12:36:58.583Z,13.37
2018-04-17T12:39:25.337Z,13.20
2018-04-17T12:41:52.003Z,14.77
2018-04-17T12:44:18.697Z,15.90
2018-04-17T12:46:45.395Z,16.80
2018-04-17T12:49:12.088Z,14.07
2018-04-17T12:51:38.787Z,14.30
2018-04-17T12:54:05.484Z,16.47
2018-04-17T12:56:32.264Z,15.93
2018-04-17T12:58:58.970Z,14.00
2018-04-17T13:01:25.685Z,13.23
2018-04-17T13:03:52.411Z,14.53
2018-04-17T13:06:19.099Z,15.27
2018-04-17T13:08:45.803Z,14.53
2018-04-17T13:11:12.492Z,12.77
2018-04-17T13:13:39.282Z,14.83
2018-04-17T13:16:06.076Z,16.80
2018-04-17T13:18:32.770Z,13.60
2018-04-17T13:20:59.491Z,15.00
2018-04-17T13:23:26.179Z,16.40
2018-04-17T13:25:53.939Z,17.47
2018-04-17T13:28:20.624Z,16.20
2018-04-17T13:30:47.333Z,14.53
2018-04-17T13:33:14.018Z,12.53
2018-04-17T13:35:40.735Z,15.70
2018-04-17T13:38:07.415Z,18.33
2018-04-17T13:40:34.116Z,13.27
2018-04-17T13:43:00.892Z,13.47
2018-04-17T13:45:27.712Z,13.07
2018-04-17T13:47:54.399Z,15.07
2018-04-17T13:50:21.080Z,16.03
2018-04-17T13:52:47.799Z,18.50
2018-04-17T13:55:14.479Z,14.60
2018-04-17T13:57:41.204Z,19.20
2018-04-17T14:00:08.017Z,16.33
2018-04-17T14:02:34.755Z,15.00
2018-04-17T14:05:01.632Z,14.97
2018-04-17T14:07:28.349Z,16.03
2018-04-17T14:09:55.088Z,14.40
2018-04-17T14:12:21.730Z,18.80
2018-04-17T14:14:48.437Z,15.10
2018-04-17T14:17:15.223Z,13.80
2018-04-17T14:19:41.887Z,14.30
2018-04-17T14:22:08.566Z,12.90
2018-04-17T14:24:35.290Z,14.70
2018-04-17T14:27:02.093Z,15.83
2018-04-17T14:29:28.801Z,13.00
2018-04-17T14:31:55.499Z,15.80
2018-04-17T14:34:22.192Z,14.63
2018-04-17T14:36:49.012Z,18.83
2018-04-17T14:39:15.711Z,15.23
2018-04-17T14:41:42.475Z,19.47
2018-04-17T14:44:09.166Z,14.53
2018-04-17T14:46:35.882Z,16.20
2018-04-17T14:49:02.584Z,14.20
2018-04-17T14:51:29.255Z,16.70
2018-04-17T14:53:55.959Z,12.90
2018-04-17T14:56:22.647Z,20.07
2018-04-17T14:58:49.467Z,13.43
2018-04-17T15:01:16.148Z,15.37
2018-04-17T15:03:42.952Z,14.10
2018-04-17T15:06:09.811Z,13.87
2018-04-17T15:08:36.524Z,14.27
2018-04-17T15:11:03.230Z,14.13
2018-04-17T15:13:29.938Z,11.60
2018-04-17T15:15:56.617Z,14.33
2018-04-17T15:18:23.473Z,14.60
2018-04-17T15:20:50.170Z,15.07
2018-04-17T15:23:16.847Z,11.83
2018-04-17T15:25:43.663Z,13.23
2018-04-17T15:28:10.348Z,12.93
2018-04-17T15:30:37.156Z,13.37
2018-04-17T15:33:03.839Z,13.43
2018-04-17T15:35:30.547Z,12.57
2018-04-17T15:37:57.400Z,16.63
2018-04-17T15:40:24.084Z,14.27
2018-04-17T15:42:50.781Z,11.40
2018-04-17T15:45:17.510Z,13.67
2018-04-17T15:47:44.207Z,17.63
2018-04-17T15:50:10.916Z,13.10
2018-04-17T15:52:37.603Z,13.23
2018-04-17T15:55:04.342Z,15.10
2018-04-17T15:57:31.027Z,11.87
2018-04-17T15:59:57.739Z,14.47
2018-04-17T16:02:24.444Z,12.77
2018-04-17T16:04:51.172Z,14.17
2018-04-17T16:07:17.963Z,13.03
2018-04-17T16:09:44.653Z,12.27
2018-04-17T16:12:11.363Z,11.43
2018-04-17T16:14:38.051Z,11.20
2018-04-17T16:17:04.741Z,9.57
2018-04-17T16:19:31.512Z,15.87
2018-04-17T16:21:58.404Z,12.50
2018-04-17T16:24:25.168Z,13.47
2018-04-17T16:26:51.884Z,12.67
2018-04-17T16:29:18.586Z,18.20
2018-04-17T16:31:45.335Z,12.70
2018-04-17T16:34:12.062Z,13.87
2018-04-17T16:36:38.754Z,12.50
2018-04-17T16:39:05.471Z,12.47
2018-04-17T16:41:32.223Z,11.17
2018-04-17T16:43:58.909Z,11.40
2018-04-17T16:46:25.639Z,12.63
2018-04-17T16:48:52.403Z,11.60
2018-04-17T16:51:19.181Z,10.33
2018-04-17T16:53:45.819Z,14.70
2018-04-17T16:56:12.519Z,12.93
2018-04-17T16:58:39.233Z,16.43
2018-04-17T17:01:05.931Z,12.63
2018-04-17T17:03:32.633Z,13.30
2018-04-17T17:05:59.312Z,10.80
2018-04-17T17:08:26.048Z,12.33
2018-04-17T17:10:52.738Z,10.53
2018-04-17T17:13:19.480Z,13.20
2018-04-17T17:15:46.238Z,12.17
2018-04-17T17:18:12.903Z,7.57
2018-04-17T17:20:39.579Z,9.80
2018-04-17T17:23:06.295Z,10.50
2018-04-17T17:25:33.047Z,12.37
2018-04-17T17:27:59.767Z,9.10
2018-04-17T17:30:26.452Z,10.30
2018-04-17T17:32:53.180Z,13.97
2018-04-17T17:35:19.911Z,11.03
2018-04-17T17:37:46.621Z,10.13
2018-04-17T17:40:13.306Z,11.63
2018-04-17T17:42:39.938Z,9.70
2018-04-17T17:45:06.638Z,9.73
2018-04-17T17:47:33.327Z,13.67
2018-04-17T17:50:00.048Z,10.13
2018-04-17T17:52:26.748Z,9.87
2018-04-17T17:54:53.444Z,8.97
2018-04-17T17:57:20.120Z,8.33
2018-04-17T17:59:47.406Z,9.43
2018-04-17T18:02:14.143Z,8.50
2018-04-17T18:04:40.909Z,10.63
2018-04-17T18:07:07.737Z,9.43
2018-04-17T18:09:34.421Z,14.33
2018-04-17T18:12:01.125Z,11.33
2018-04-17T18:14:27.807Z,9.90
2018-04-17T18:16:54.520Z,8.80
2018-04-17T18:19:21.232Z,11.90
2018-04-17T18:21:48.019Z,10.57
2018-04-17T18:24:14.780Z,9.73
2018-04-17T18:26:41.489Z,20.73
2018-04-17T18:29:08.231Z,84.73
2018-04-17T18:31:34.928Z,32.83
2018-04-17T18:34:01.629Z,10.63
2018-04-17T18:36:28.356Z,11.27
2018-04-17T18:38:55.049Z,10.70
2018-04-17T18:41:21.756Z,14.87
2018-04-17T18:43:48.446Z,9.07
2018-04-17T18:46:15.146Z,12.23
2018-04-17T18:48:41.859Z,10.90
2018-04-17T18:51:08.578Z,10.87
2018-04-17T18:53:35.258Z,8.57
2018-04-17T18:56:02.009Z,8.20
2018-04-17T18:58:28.706Z,11.53
2018-04-17T19:00:55.438Z,18.03
2018-04-17T19:03:22.147Z,12.07
2018-04-17T19:05:48.842Z,9.93
2018-04-17T19:08:15.598Z,10.53
2018-04-17T19:10:42.248Z,9.30
2018-04-17T19:13:08.953Z,16.23
2018-04-17T19:15:35.661Z,12.20
2018-04-17T19:18:02.364Z,13.10
2018-04-17T19:20:29.096Z,12.23
2018-04-17T19:22:55.823Z,10.00
2018-04-17T19:25:22.517Z,13.93
2018-04-17T19:27:49.227Z,19.53
2018-04-17T19:30:15.895Z,12.00
2018-04-17T19:32:42.678Z,14.20
2018-04-17T19:35:09.415Z,12.57
2018-04-17T19:37:36.116Z,13.03
2018-04-17T19:40:02.890Z,12.07
2018-04-17T19:42:29.624Z,14.53
2018-04-17T19:44:56.343Z,12.70
2018-04-17T19:47:23.067Z,12.60
2018-04-17T19:49:49.798Z,11.60
2018-04-17T19:52:16.496Z,13.37
2018-04-17T19:54:43.260Z,13.40
2018-04-17T19:57:09.990Z,13.30
2018-04-17T19:59:36.720Z,14.53
2018-04-17T20:02:03.495Z,14.40
2018-04-17T20:04:30.206Z,11.43
2018-04-17T20:06:56.900Z,17.17
2018-04-17T20:09:23.602Z,14.60
2018-04-17T20:11:50.292Z,14.43
2018-04-17T20:14:17.050Z,16.10
2018-04-17T20:16:43.876Z,12.37
2018-04-17T20:19:10.574Z,12.70
2018-04-17T20:21:37.453Z,12.63
2018-04-17T20:24:04.127Z,11.80
2018-04-17T20:26:30.841Z,11.53
2018-04-17T20:28:57.583Z,15.10
2018-04-17T20:31:24.277Z,12.13
2018-04-17T20:33:51.053Z,15.47
2018-04-17T20:36:17.762Z,16.77
2018-04-17T20:38:44.453Z,15.37
2018-04-17T20:41:11.154Z,15.80
2018-04-17T20:43:37.936Z,16.90
2018-04-17T20:46:04.631Z,13.60
2018-04-17T20:48:31.380Z,14.87
2018-04-17T20:50:58.132Z,12.10
2018-04-17T20:53:24.816Z,16.17
2018-04-17T20:55:51.682Z,15.43
2018-04-17T20:58:18.388Z,15.03
2018-04-17T21:00:45.072Z,16.90
2018-04-17T21:03:11.964Z,15.10
2018-04-17T21:05:38.642Z,15.03
2018-04-17T21:08:05.361Z,16.63
2018-04-17T21:10:32.077Z,17.43
2018-04-17T21:12:58.883Z,17.13
2018-04-17T21:15:25.731Z,19.73
2018-04-17T21:17:52.445Z,15.90
2018-04-17T21:20:19.189Z,18.87
2018-04-17T21:22:45.895Z,15.70
2018-04-17T21:25:12.584Z,13.87
2018-04-17T21:27:39.269Z,14.33
2018-04-17T21:30:05.965Z,13.37
2018-04-17T21:32:32.680Z,12.63
2018-04-17T21:34:59.369Z,14.40
2018-04-17T21:37:26.092Z,19.80
2018-04-17T21:39:52.794Z,15.50
2018-04-17T21:42:19.504Z,16.70
2018-04-17T21:44:46.225Z,16.77
2018-04-17T21:47:12.944Z,15.93
2018-04-17T21:49:39.661Z,17.60
2018-04-17T21:52:06.360Z,14.37
2018-04-17T21:54:33.069Z,14.93
2018-04-17T21:56:59.879Z,17.20
2018-04-17T21:59:26.598Z,18.50
2018-04-17T22:01:53.289Z,18.30
2018-04-17T22:04:20.159Z,18.13
2018-04-17T22:06:46.828Z,15.67
2018-04-17T22:09:13.594Z,14.23
2018-04-17T22:11:40.312Z,12.73
2018-04-17T22:14:07.060Z,13.73
2018-04-17T22:16:33.742Z,11.93
2018-04-17T22:19:00.447Z,13.77
2018-04-17T22:21:27.147Z,15.23
2018-04-17T22:23:53.935Z,16.30
2018-04-17T22:26:20.636Z,14.50
2018-04-17T22:28:47.323Z,15.10
2018-04-17T22:31:14.044Z,14.73
2018-04-17T22:33:40.744Z,15.67
2018-04-17T22:36:07.437Z,16.03
2018-04-17T22:38:34.250Z,16.50
2018-04-17T22:41:00.944Z,12.40
2018-04-17T22:43:27.645Z,12.27
2018-04-17T22:45:54.421Z,9.57
2018-04-17T22:48:21.143Z,11.90
2018-04-17T22:50:48.063Z,12.43
2018-04-17T22:53:14.755Z,11.70
2018-04-17T22:55:41.472Z,16.17
2018-04-17T22:58:08.144Z,16.23
2018-04-17T23:00:34.843Z,16.10
2018-04-17T23:03:01.533Z,16.17
2018-04-17T23:05:28.441Z,19.47
2018-04-17T23:07:55.136Z,15.60
2018-04-17T23:10:21.839Z,12.63
2018-04-17T23:12:48.512Z,9.30
2018-04-17T23:15:15.216Z,9.03
2018-04-17T23:17:42.028Z,8.77
2018-04-17T23:20:08.711Z,9.50
2018-04-17T23:22:35.414Z,9.83
2018-04-17T23:25:02.220Z,13.30
2018-04-17T23:27:28.940Z,13.97
2018-04-17T23:29:55.719Z,9.53
2018-04-17T23:32:22.526Z,8.80
2018-04-17T23:34:49.244Z,10.03
2018-04-17T23:37:15.934Z,11.47
2018-04-17T23:39:42.633Z,10.40
2018-04-17T23:42:09.336Z,10.03
2018-04-17T23:44:36.159Z,9.10
2018-04-17T23:47:02.850Z,8.30
2018-04-17T23:49:29.532Z,11.07
2018-04-17T23:51:56.288Z,9.90
2018-04-17T23:54:22.987Z,6.40
2018-04-17T23:56:49.767Z,6.53
2018-04-17T23:59:16.468Z,11.17
